createdAt,value
2023-04-10T00:00:30.889Z,102027.88
2023-04-10T00:01:02.448Z,102027.38
2023-04-10T00:01:36.181Z,102025.06
2023-04-10T00:02:07.920Z,102033.34
2023-04-10T00:02:39.563Z,102024.06
2023-04-10T00:03:11.441Z,102026.06
2023-04-10T00:03:43.461Z,102024.72
2023-04-10T00:04:16.349Z,102022.06
2023-04-10T00:04:48.093Z,102024.56
2023-04-10T00:05:19.742Z,102020.59
2023-04-10T00:05:51.578Z,102020.91
2023-04-10T00:06:23.146Z,102021.75
2023-04-10T00:06:55.524Z,102019.59
2023-04-10T00:07:27.562Z,102016.13
2023-04-10T00:07:59.081Z,102016.94
2023-04-10T00:08:30.611Z,102019.75
2023-04-10T00:09:02.173Z,102017.09
2023-04-10T00:09:34.293Z,102018.75
2023-04-10T00:10:06.161Z,102019.25
2023-04-10T00:10:37.744Z,102026.06
2023-04-10T00:11:09.478Z,102019.59
2023-04-10T00:11:41.046Z,102024.22
2023-04-10T00:12:12.719Z,102030.34
2023-04-10T00:12:44.264Z,102024.22
2023-04-10T00:13:16.565Z,102022.75
2023-04-10T00:13:48.057Z,102026.06
2023-04-10T00:14:23.139Z,102023.91
2023-04-10T00:14:54.713Z,102019.75
2023-04-10T00:15:26.594Z,102023.56
2023-04-10T00:15:58.475Z,102017.09
2023-04-10T00:16:30.125Z,102024.72
2023-04-10T00:17:01.899Z,102021.41
2023-04-10T00:17:33.637Z,102029.19
2023-04-10T00:18:05.316Z,102025.88
2023-04-10T00:18:36.977Z,102029.88
2023-04-10T00:19:08.771Z,102024.72
2023-04-10T00:19:40.546Z,102029.38
2023-04-10T00:20:12.536Z,102032.69
2023-04-10T00:20:44.275Z,102029.03
2023-04-10T00:21:15.881Z,102030.69
2023-04-10T00:21:47.507Z,102021.56
2023-04-10T00:22:19.010Z,102027.88
2023-04-10T00:22:50.826Z,102029.69
2023-04-10T00:23:22.471Z,102023.06
2023-04-10T00:23:54.385Z,102021.38
2023-04-10T00:24:26.189Z,102022.72
2023-04-10T00:24:57.722Z,102024.22
2023-04-10T00:25:29.292Z,102025.03
2023-04-10T00:26:01.600Z,102015.75
2023-04-10T00:26:33.326Z,102026.03
2023-04-10T00:27:04.898Z,102019.72
2023-04-10T00:27:36.463Z,102019.41
2023-04-10T00:28:07.991Z,102022.06
2023-04-10T00:28:39.542Z,102015.72
2023-04-10T00:29:11.164Z,102019.84
2023-04-10T00:29:42.768Z,102013.06
2023-04-10T00:30:14.414Z,102012.25
2023-04-10T00:30:45.953Z,102016.72
2023-04-10T00:31:17.521Z,102016.91
2023-04-10T00:31:49.879Z,102008.81
2023-04-10T00:32:21.551Z,102012.78
2023-04-10T00:32:53.246Z,101995.19
2023-04-10T00:33:24.953Z,102002.81
2023-04-10T00:33:56.543Z,102001.66
2023-04-10T00:34:28.154Z,102001.31
2023-04-10T00:34:59.720Z,102008.75
2023-04-10T00:35:31.671Z,102011.41
2023-04-10T00:36:03.825Z,102003.13
2023-04-10T00:36:35.683Z,102002.03
2023-04-10T00:37:07.372Z,102005.50
2023-04-10T00:37:39.113Z,102002.19
2023-04-10T00:38:10.701Z,101998.22
2023-04-10T00:38:42.600Z,102000.19
2023-04-10T00:39:14.551Z,102002.84
2023-04-10T00:39:46.435Z,101997.19
2023-04-10T00:40:18.093Z,101998.72
2023-04-10T00:40:49.651Z,102002.19
2023-04-10T00:41:21.697Z,101997.22
2023-04-10T00:41:53.310Z,101994.41
2023-04-10T00:42:24.890Z,101994.56
2023-04-10T00:42:56.438Z,101994.25
2023-04-10T00:43:27.988Z,101997.50
2023-04-10T00:44:00.249Z,101994.91
2023-04-10T00:44:32.006Z,101996.56
2023-04-10T00:45:03.968Z,101987.09
2023-04-10T00:45:36.026Z,101993.72
2023-04-10T00:46:07.691Z,101995.22
2023-04-10T00:46:40.293Z,101988.28
2023-04-10T00:47:13.407Z,101987.63
2023-04-10T00:47:45.273Z,101993.53
2023-04-10T00:48:17.114Z,101988.63
2023-04-10T00:48:48.841Z,101984.63
2023-04-10T00:49:20.622Z,101980.97
2023-04-10T00:49:52.271Z,101981.81
2023-04-10T00:50:24.255Z,101981.78
2023-04-10T00:50:56.024Z,101992.53
2023-04-10T00:51:27.559Z,101986.44
2023-04-10T00:51:59.152Z,101990.59
2023-04-10T00:52:31.045Z,101986.78
2023-04-10T00:53:03.077Z,101982.31
2023-04-10T00:53:34.599Z,101986.59
2023-04-10T00:54:06.632Z,101978.34
2023-04-10T00:54:38.600Z,101979.34
2023-04-10T00:55:11.107Z,101976.34
2023-04-10T00:55:43.374Z,101973.03
2023-04-10T00:56:15.530Z,101973.34
2023-04-10T00:56:47.244Z,101976.19
2023-04-10T00:57:18.860Z,101970.41
2023-04-10T00:57:50.593Z,101969.75
2023-04-10T00:58:22.140Z,101969.41
2023-04-10T00:58:53.623Z,101970.06
2023-04-10T00:59:25.404Z,101968.41
2023-04-10T00:59:57.042Z,101966.59
2023-04-10T01:00:29.074Z,101962.78
2023-04-10T01:01:01.028Z,101965.44
2023-04-10T01:01:32.637Z,101962.78
2023-04-10T01:02:04.478Z,101956.81
2023-04-10T01:02:36.591Z,101964.44
2023-04-10T01:03:09.711Z,101956.81
2023-04-10T01:03:42.934Z,101958.16
2023-04-10T01:04:14.825Z,101960.63
2023-04-10T01:04:46.643Z,101956.84
2023-04-10T01:05:18.388Z,101949.72
2023-04-10T01:06:17.608Z,101951.84
2023-04-10T01:06:58.092Z,101941.91
2023-04-10T01:07:48.128Z,101950.22
2023-04-10T01:08:35.955Z,101947.69
2023-04-10T01:09:36.711Z,101951.38
2023-04-10T01:10:34.349Z,101958.31
2023-04-10T01:11:16.413Z,101949.69
2023-04-10T01:11:53.836Z,101946.88
2023-04-10T01:12:58.579Z,101949.72
2023-04-10T01:13:35.643Z,101943.88
2023-04-10T01:14:33.361Z,101953.47
2023-04-10T01:15:09.171Z,101948.69
2023-04-10T01:15:58.627Z,101946.50
2023-04-10T01:16:43.344Z,101946.66
2023-04-10T01:17:56.409Z,101949.16
2023-04-10T01:18:34.938Z,101939.59
2023-04-10T01:19:21.486Z,101941.56
2023-04-10T01:20:00.326Z,101935.94
2023-04-10T01:20:35.041Z,101945.38
2023-04-10T01:21:09.370Z,101944.22
2023-04-10T01:21:41.602Z,101945.06
2023-04-10T01:22:14.312Z,101950.69
2023-04-10T01:22:56.755Z,101952.50
2023-04-10T01:23:31.710Z,101944.22
2023-04-10T01:24:32.711Z,101949.34
2023-04-10T01:25:26.110Z,101941.56
2023-04-10T01:26:03.348Z,101945.81
2023-04-10T01:27:08.267Z,101950.41
2023-04-10T01:27:58.183Z,101948.47
2023-04-10T01:28:54.344Z,101949.81
2023-04-10T01:29:27.970Z,101952.78
2023-04-10T01:30:03.900Z,101954.25
2023-04-10T01:30:37.115Z,101953.91
2023-04-10T01:31:11.889Z,101954.75
2023-04-10T01:31:53.480Z,101953.34
2023-04-10T01:32:25.385Z,101953.19
2023-04-10T01:32:59.706Z,101951.88
2023-04-10T01:33:39.823Z,101950.41
2023-04-10T01:34:20.612Z,101951.53
2023-04-10T01:34:54.828Z,101956.00
2023-04-10T01:35:29.305Z,101948.22
2023-04-10T01:36:03.507Z,101950.13
2023-04-10T01:36:50.037Z,101950.38
2023-04-10T01:37:32.084Z,101951.03
2023-04-10T01:38:05.466Z,101948.47
2023-04-10T01:38:38.104Z,101949.84
2023-04-10T01:39:10.356Z,101956.66
2023-04-10T01:39:42.798Z,101947.41
2023-04-10T01:40:15.957Z,101953.00
2023-04-10T01:40:51.291Z,101952.00
2023-04-10T01:41:31.664Z,101948.47
2023-04-10T01:42:05.861Z,101952.84
2023-04-10T01:42:49.010Z,101952.00
2023-04-10T01:43:21.185Z,101954.31
2023-04-10T01:43:56.180Z,101950.28
2023-04-10T01:44:30.126Z,101951.00
2023-04-10T01:45:02.092Z,101953.16
2023-04-10T01:45:33.902Z,101949.63
2023-04-10T01:46:06.042Z,101943.34
2023-04-10T01:46:38.315Z,101952.84
2023-04-10T01:47:10.078Z,101952.34
2023-04-10T01:47:42.972Z,101940.97
2023-04-10T01:48:16.599Z,101949.63
2023-04-10T01:48:48.648Z,101945.66
2023-04-10T01:49:20.493Z,101956.38
2023-04-10T01:49:53.684Z,101953.22
2023-04-10T01:50:27.932Z,101947.38
2023-04-10T01:51:03.072Z,101947.47
2023-04-10T01:51:35.823Z,101951.53
2023-04-10T01:52:13.401Z,101954.09
2023-04-10T01:52:47.703Z,101958.03
2023-04-10T01:53:23.640Z,101949.78
2023-04-10T01:53:56.037Z,101954.50
2023-04-10T01:54:32.885Z,101952.34
2023-04-10T01:55:08.353Z,101953.06
2023-04-10T01:55:54.276Z,101951.84
2023-04-10T01:56:26.494Z,101949.03
2023-04-10T01:57:02.214Z,101948.28
2023-04-10T01:57:36.467Z,101950.59
2023-04-10T01:58:08.714Z,101949.84
2023-04-10T01:58:41.015Z,101946.41
2023-04-10T01:59:12.988Z,101951.28
2023-04-10T01:59:44.622Z,101945.59
2023-04-10T02:00:16.928Z,101951.28
2023-04-10T02:00:48.770Z,101947.97
2023-04-10T02:01:29.139Z,101945.97
2023-04-10T02:02:02.128Z,101946.53
2023-04-10T02:02:34.604Z,101942.25
2023-04-10T02:03:06.618Z,101945.91
2023-04-10T02:03:38.613Z,101946.56
2023-04-10T02:04:11.172Z,101947.97
2023-04-10T02:04:42.852Z,101947.25
2023-04-10T02:05:16.018Z,101950.63
2023-04-10T02:06:05.607Z,101946.66
2023-04-10T02:07:11.234Z,101945.00
2023-04-10T02:07:47.251Z,101943.84
2023-04-10T02:08:27.586Z,101946.22
2023-04-10T02:09:10.307Z,101944.03
2023-04-10T02:09:55.035Z,101937.78
2023-04-10T02:10:43.764Z,101943.31
2023-04-10T02:11:15.411Z,101939.28
2023-04-10T02:12:02.102Z,101940.63
2023-04-10T02:12:53.973Z,101935.97
2023-04-10T02:13:29.539Z,101935.97
2023-04-10T02:14:04.605Z,101935.97
2023-04-10T02:14:42.933Z,101940.03
2023-04-10T02:15:17.012Z,101939.56
2023-04-10T02:15:50.935Z,101932.16
2023-04-10T02:16:23.780Z,101938.44
2023-04-10T02:16:56.501Z,101939.06
2023-04-10T02:17:29.920Z,101940.91
2023-04-10T02:18:04.872Z,101934.81
2023-04-10T02:18:37.318Z,101936.91
2023-04-10T02:19:10.537Z,101934.75
2023-04-10T02:19:42.735Z,101934.41
2023-04-10T02:20:16.251Z,101934.41
2023-04-10T02:20:47.978Z,101932.03
2023-04-10T02:21:19.579Z,101934.00
2023-04-10T02:21:51.946Z,101937.66
2023-04-10T02:22:25.519Z,101933.75
2023-04-10T02:22:59.550Z,101935.75
2023-04-10T02:23:31.080Z,101940.84
2023-04-10T02:24:02.711Z,101936.16
2023-04-10T02:24:35.002Z,101927.03
2023-04-10T02:25:07.268Z,101929.84
2023-04-10T02:25:39.474Z,101927.81
2023-04-10T02:27:00.130Z,101930.19
2023-04-10T02:27:34.309Z,101929.69
2023-04-10T02:28:07.264Z,101927.88
2023-04-10T02:28:39.643Z,101928.38
2023-04-10T02:29:12.022Z,101934.16
2023-04-10T02:29:43.642Z,101926.66
2023-04-10T02:30:15.346Z,101928.78
2023-04-10T02:30:47.373Z,101921.22
2023-04-10T02:31:19.083Z,101925.22
2023-04-10T02:31:50.802Z,101923.56
2023-04-10T02:32:24.502Z,101924.59
2023-04-10T02:32:56.292Z,101922.25
2023-04-10T02:33:27.999Z,101919.94
2023-04-10T02:33:59.577Z,101922.41
2023-04-10T02:34:31.159Z,101925.16
2023-04-10T02:35:04.104Z,101928.13
2023-04-10T02:35:36.198Z,101924.41
2023-04-10T02:36:09.068Z,101923.50
2023-04-10T02:36:40.710Z,101924.84
2023-04-10T02:37:13.913Z,101927.00
2023-04-10T02:37:47.449Z,101926.81
2023-04-10T02:38:20.647Z,101928.72
2023-04-10T02:38:52.423Z,101926.00
2023-04-10T02:39:26.037Z,101921.19
2023-04-10T02:39:57.694Z,101921.63
2023-04-10T02:40:30.787Z,101925.75
2023-04-10T02:41:16.337Z,101919.47
2023-04-10T02:41:48.006Z,101919.16
2023-04-10T02:42:19.625Z,101918.53
2023-04-10T02:42:51.613Z,101919.53
2023-04-10T02:43:23.226Z,101912.72
2023-04-10T02:43:55.442Z,101914.81
2023-04-10T02:44:31.262Z,101912.78
2023-04-10T02:45:03.086Z,101911.88
2023-04-10T02:45:40.427Z,101918.53
2023-04-10T02:46:13.362Z,101913.59
2023-04-10T02:46:46.531Z,101910.53
2023-04-10T02:47:18.860Z,101910.00
2023-04-10T02:47:51.921Z,101910.69
2023-04-10T02:48:24.022Z,101910.53
2023-04-10T02:49:01.238Z,101914.59
2023-04-10T02:49:35.761Z,101907.63
2023-04-10T02:50:14.286Z,101904.84
2023-04-10T02:50:50.854Z,101906.00
2023-04-10T02:51:22.429Z,101908.03
2023-04-10T02:51:54.101Z,101908.69
2023-04-10T02:52:25.695Z,101909.03
2023-04-10T02:52:57.245Z,101906.47
2023-04-10T02:53:28.941Z,101901.41
2023-04-10T02:54:04.011Z,101899.75
2023-04-10T02:54:37.566Z,101899.38
2023-04-10T02:55:09.952Z,101903.28
2023-04-10T02:55:43.142Z,101900.88
2023-04-10T02:56:15.009Z,101898.41
2023-04-10T02:56:47.271Z,101900.69
2023-04-10T02:57:18.830Z,101897.31
2023-04-10T02:57:51.580Z,101895.66
2023-04-10T02:58:23.134Z,101905.84
2023-04-10T02:58:57.908Z,101899.88
2023-04-10T02:59:29.994Z,101904.53
2023-04-10T03:00:04.701Z,101902.59
2023-04-10T03:00:54.911Z,101903.81
2023-04-10T03:01:43.490Z,101904.31
2023-04-10T03:02:15.904Z,101898.81
2023-04-10T03:02:47.653Z,101900.25
2023-04-10T03:03:22.992Z,101905.50
2023-04-10T03:03:58.906Z,101901.53
2023-04-10T03:04:36.287Z,101894.69
2023-04-10T03:05:09.030Z,101905.38
2023-04-10T03:05:41.084Z,101906.31
2023-04-10T03:06:13.403Z,101898.81
2023-04-10T03:06:47.067Z,101900.19
2023-04-10T03:07:18.606Z,101897.16
2023-04-10T03:07:50.411Z,101900.63
2023-04-10T03:08:22.884Z,101899.53
2023-04-10T03:08:55.357Z,101891.81
2023-04-10T03:09:26.932Z,101899.50
2023-04-10T03:09:59.142Z,101896.03
2023-04-10T03:10:31.088Z,101897.38
2023-04-10T03:11:02.627Z,101897.38
2023-04-10T03:11:34.356Z,101896.16
2023-04-10T03:12:05.941Z,101890.13
2023-04-10T03:12:37.603Z,101897.34
2023-04-10T03:13:09.167Z,101894.34
2023-04-10T03:13:40.721Z,101892.09
2023-04-10T03:14:12.256Z,101887.97
2023-04-10T03:14:43.821Z,101885.94
2023-04-10T03:15:16.288Z,101892.03
2023-04-10T03:15:47.984Z,101883.19
2023-04-10T03:16:19.824Z,101891.69
2023-04-10T03:16:52.124Z,101890.44
2023-04-10T03:17:23.682Z,101888.47
2023-04-10T03:17:56.609Z,101886.88
2023-04-10T03:18:28.182Z,101889.28
2023-04-10T03:19:01.183Z,101883.88
2023-04-10T03:19:32.786Z,101885.59
2023-04-10T03:20:04.848Z,101891.69
2023-04-10T03:20:39.930Z,101896.34
2023-04-10T03:21:11.539Z,101892.72
2023-04-10T03:21:43.100Z,101891.38
2023-04-10T03:22:14.710Z,101891.22
2023-04-10T03:22:46.251Z,101889.06
2023-04-10T03:23:17.834Z,101882.53
2023-04-10T03:23:49.366Z,101892.41
2023-04-10T03:24:21.266Z,101885.44
2023-04-10T03:24:52.802Z,101887.47
2023-04-10T03:25:24.412Z,101889.78
2023-04-10T03:25:56.283Z,101896.03
2023-04-10T03:26:31.703Z,101891.44
2023-04-10T03:27:03.660Z,101885.00
2023-04-10T03:27:35.841Z,101886.81
2023-04-10T03:28:08.139Z,101895.41
2023-04-10T03:28:41.405Z,101891.44
2023-04-10T03:29:18.932Z,101892.41
2023-04-10T03:29:50.628Z,101891.06
2023-04-10T03:30:22.706Z,101899.03
2023-04-10T03:30:54.652Z,101892.41
2023-04-10T03:31:26.258Z,101884.88
2023-04-10T03:32:00.907Z,101890.44
2023-04-10T03:32:32.842Z,101895.06
2023-04-10T03:33:04.411Z,101883.09
2023-04-10T03:33:36.472Z,101891.19
2023-04-10T03:34:07.994Z,101898.22
2023-04-10T03:34:39.546Z,101886.69
2023-04-10T03:35:11.182Z,101895.75
2023-04-10T03:35:43.003Z,101898.38
2023-04-10T03:36:14.916Z,101891.09
2023-04-10T03:36:46.672Z,101899.22
2023-04-10T03:37:19.860Z,101897.22
2023-04-10T03:37:51.499Z,101897.03
2023-04-10T03:38:23.292Z,101893.47
2023-04-10T03:38:55.365Z,101892.47
2023-04-10T03:39:26.887Z,101892.63
2023-04-10T03:39:58.576Z,101891.28
2023-04-10T03:40:30.356Z,101892.94
2023-04-10T03:41:02.313Z,101889.94
2023-04-10T03:41:36.362Z,101890.91
2023-04-10T03:42:07.878Z,101902.47
2023-04-10T03:42:39.597Z,101898.16
2023-04-10T03:43:11.736Z,101899.16
2023-04-10T03:43:43.456Z,101898.50
2023-04-10T03:44:15.413Z,101897.78
2023-04-10T03:44:46.960Z,101906.03
2023-04-10T03:45:18.642Z,101902.69
2023-04-10T03:45:50.402Z,101894.16
2023-04-10T03:46:22.735Z,101899.50
2023-04-10T03:46:55.672Z,101897.44
2023-04-10T03:47:27.429Z,101894.22
2023-04-10T03:47:59.359Z,101888.63
2023-04-10T03:48:32.353Z,101892.56
2023-04-10T03:49:04.167Z,101897.06
2023-04-10T03:49:37.425Z,101900.06
2023-04-10T03:50:11.340Z,101892.47
2023-04-10T03:50:50.890Z,101899.09
2023-04-10T03:51:24.578Z,101884.38
2023-04-10T03:51:56.444Z,101890.50
2023-04-10T03:52:28.284Z,101893.28
2023-04-10T03:53:01.605Z,101894.03
2023-04-10T03:53:36.057Z,101897.03
2023-04-10T03:54:11.420Z,101895.53
2023-04-10T03:54:43.037Z,101899.75
2023-04-10T03:55:25.904Z,101897.19
2023-04-10T03:55:57.584Z,101891.63
2023-04-10T03:56:30.249Z,101901.09
2023-04-10T03:57:03.201Z,101890.31
2023-04-10T03:57:34.824Z,101890.78
2023-04-10T03:58:08.981Z,101893.94
2023-04-10T03:58:41.693Z,101897.22
2023-04-10T03:59:16.569Z,101892.97
2023-04-10T03:59:48.365Z,101892.38
2023-04-10T04:00:20.658Z,101890.59
2023-04-10T04:00:52.120Z,101887.44
2023-04-10T04:01:49.205Z,101888.13
2023-04-10T04:02:21.066Z,101887.38
2023-04-10T04:02:54.295Z,101884.50
2023-04-10T04:04:04.769Z,101891.56
2023-04-10T04:04:54.966Z,101887.38
2023-04-10T04:05:44.839Z,101883.16
2023-04-10T04:06:31.147Z,101892.13
2023-04-10T04:07:20.204Z,101886.06
2023-04-10T04:08:03.378Z,101896.50
2023-04-10T04:08:40.415Z,101893.19
2023-04-10T04:09:21.824Z,101884.00
2023-04-10T04:10:05.721Z,101893.81
2023-04-10T04:10:55.883Z,101890.72
2023-04-10T04:11:38.557Z,101890.50
2023-04-10T04:12:22.154Z,101884.03
2023-04-10T04:13:03.516Z,101884.16
2023-04-10T04:13:58.159Z,101894.25
2023-04-10T04:14:45.311Z,101881.88
2023-04-10T04:15:49.568Z,101884.16
2023-04-10T04:16:41.440Z,101888.75
2023-04-10T04:17:39.379Z,101888.44
2023-04-10T04:18:11.065Z,101889.66
2023-04-10T04:18:50.224Z,101882.94
2023-04-10T04:19:43.808Z,101889.34
2023-04-10T04:20:33.685Z,101882.63
2023-04-10T04:21:18.231Z,101882.25
2023-04-10T04:22:08.388Z,101876.25
2023-04-10T04:22:58.616Z,101877.38
2023-04-10T04:24:05.187Z,101873.44
2023-04-10T04:25:11.574Z,101879.88
2023-04-10T04:26:07.122Z,101867.00
2023-04-10T04:26:57.598Z,101872.16
2023-04-10T04:27:52.474Z,101866.28
2023-04-10T04:28:47.351Z,101871.50
2023-04-10T04:29:29.078Z,101870.44
2023-04-10T04:30:14.932Z,101859.66
2023-04-10T04:31:09.024Z,101866.06
2023-04-10T04:32:02.913Z,101860.19
2023-04-10T04:32:57.645Z,101865.91
2023-04-10T04:33:46.722Z,101858.63
2023-04-10T04:34:36.677Z,101859.19
2023-04-10T04:35:14.456Z,101857.69
2023-04-10T04:36:04.915Z,101855.97
2023-04-10T04:36:59.912Z,101861.09
2023-04-10T04:37:46.046Z,101863.06
2023-04-10T04:38:40.501Z,101861.78
2023-04-10T04:39:31.238Z,101867.50
2023-04-10T04:40:25.502Z,101867.06
2023-04-10T04:41:12.637Z,101856.78
2023-04-10T04:42:08.676Z,101861.63
2023-04-10T04:43:12.680Z,101861.69
2023-04-10T04:44:02.385Z,101864.78
2023-04-10T04:45:09.943Z,101853.88
2023-04-10T04:46:01.836Z,101858.44
2023-04-10T04:46:56.309Z,101861.84
2023-04-10T04:47:46.480Z,101855.38
2023-04-10T04:48:30.730Z,101858.84
2023-04-10T04:49:15.942Z,101857.38
2023-04-10T04:50:16.938Z,101857.25
2023-04-10T04:51:08.740Z,101850.09
2023-04-10T04:51:56.148Z,101852.56
2023-04-10T04:52:38.374Z,101851.75
2023-04-10T04:53:26.328Z,101855.06
2023-04-10T04:54:04.186Z,101851.13
2023-04-10T04:54:35.686Z,101849.56
2023-04-10T04:55:20.190Z,101854.44
2023-04-10T04:56:17.836Z,101852.53
2023-04-10T04:57:10.644Z,101856.81
2023-04-10T04:58:08.032Z,101853.75
2023-04-10T04:59:17.792Z,101843.19
2023-04-10T05:00:24.622Z,101847.31
2023-04-10T05:01:22.531Z,101850.53
2023-04-10T05:02:18.799Z,101843.63
2023-04-10T05:03:10.535Z,101844.53
2023-04-10T05:03:54.781Z,101841.81
2023-04-10T05:04:42.127Z,101829.75
2023-04-10T05:05:22.288Z,101842.88
2023-04-10T05:06:14.440Z,101833.31
2023-04-10T05:07:12.235Z,101829.19
2023-04-10T05:07:43.854Z,101837.91
2023-04-10T05:08:41.742Z,101828.69
2023-04-10T05:09:51.813Z,101835.66
2023-04-10T05:10:26.562Z,101835.31
2023-04-10T05:11:14.522Z,101836.31
2023-04-10T05:12:11.875Z,101831.69
2023-04-10T05:12:56.741Z,101835.19
2023-04-10T05:13:35.549Z,101832.72
2023-04-10T05:14:25.435Z,101830.97
2023-04-10T05:15:17.327Z,101830.75
2023-04-10T05:16:19.021Z,101827.81
2023-04-10T05:17:15.083Z,101837.34
2023-04-10T05:17:51.167Z,101835.34
2023-04-10T05:18:41.650Z,101842.44
2023-04-10T05:19:31.054Z,101842.28
2023-04-10T05:20:27.256Z,101830.72
2023-04-10T05:21:07.575Z,101838.47
2023-04-10T05:21:46.289Z,101843.38
2023-04-10T05:22:28.651Z,101839.31
2023-04-10T05:23:20.476Z,101841.38
2023-04-10T05:24:01.715Z,101838.06
2023-04-10T05:24:42.135Z,101839.41
2023-04-10T05:25:16.577Z,101836.09
2023-04-10T05:26:23.300Z,101834.16
2023-04-10T05:26:59.503Z,101837.09
2023-04-10T05:27:57.132Z,101836.28
2023-04-10T05:28:44.420Z,101846.19
2023-04-10T05:29:34.814Z,101843.41
2023-04-10T05:30:20.062Z,101839.16
2023-04-10T05:31:14.565Z,101841.09
2023-04-10T05:32:00.636Z,101832.88
2023-04-10T05:32:58.605Z,101833.91
2023-04-10T05:34:02.386Z,101833.94
2023-04-10T05:34:40.864Z,101829.50
2023-04-10T05:35:16.378Z,101836.13
2023-04-10T05:36:08.622Z,101833.00
2023-04-10T05:36:59.314Z,101829.69
2023-04-10T05:37:54.214Z,101830.00
2023-04-10T05:38:30.897Z,101822.91
2023-04-10T05:39:21.031Z,101828.53
2023-04-10T05:40:08.679Z,101824.41
2023-04-10T05:40:55.810Z,101825.72
2023-04-10T05:41:45.961Z,101823.41
2023-04-10T05:42:26.625Z,101826.06
2023-04-10T05:43:16.815Z,101826.06
2023-04-10T05:44:07.581Z,101821.13
2023-04-10T05:44:57.697Z,101827.22
2023-04-10T05:45:45.802Z,101819.81
2023-04-10T05:46:52.867Z,101810.69
2023-04-10T05:47:32.702Z,101818.63
2023-04-10T05:48:26.263Z,101811.34
2023-04-10T05:49:24.213Z,101815.97
2023-04-10T05:50:23.114Z,101816.47
2023-04-10T05:51:16.043Z,101822.41
2023-04-10T05:52:07.943Z,101815.09
2023-04-10T05:53:02.557Z,101822.03
2023-04-10T05:54:09.250Z,101816.03
2023-04-10T05:54:54.044Z,101819.06
2023-04-10T05:56:04.102Z,101818.78
2023-04-10T05:56:54.129Z,101822.97
2023-04-10T05:57:44.093Z,101822.47
2023-04-10T05:58:41.699Z,101819.63
2023-04-10T05:59:36.108Z,101813.44
2023-04-10T06:00:45.357Z,101818.25
2023-04-10T06:01:49.235Z,101806.72
2023-04-10T06:02:21.918Z,101810.84
2023-04-10T06:02:54.256Z,101806.25
2023-04-10T06:03:30.985Z,101812.31
2023-04-10T06:04:06.120Z,101809.25
2023-04-10T06:04:38.601Z,101813.25
2023-04-10T06:05:10.753Z,101805.50
2023-04-10T06:05:43.174Z,101811.56
2023-04-10T06:06:14.750Z,101814.63
2023-04-10T06:06:46.353Z,101814.75
2023-04-10T06:07:17.934Z,101812.63
2023-04-10T06:07:49.467Z,101812.09
2023-04-10T06:08:21.434Z,101815.63
2023-04-10T06:08:53.374Z,101811.25
2023-04-10T06:09:25.233Z,101807.91
2023-04-10T06:09:56.811Z,101809.06
2023-04-10T06:10:30.795Z,101805.94
2023-04-10T06:11:02.722Z,101804.91
2023-04-10T06:11:36.664Z,101810.09
2023-04-10T06:12:08.996Z,101802.31
2023-04-10T06:12:42.112Z,101812.97
2023-04-10T06:13:17.673Z,101809.63
2023-04-10T06:13:49.245Z,101809.25
2023-04-10T06:14:21.084Z,101813.16
2023-04-10T06:14:52.720Z,101807.44
2023-04-10T06:15:26.649Z,101804.91
2023-04-10T06:15:58.567Z,101811.41
2023-04-10T06:16:30.877Z,101805.28
2023-04-10T06:17:03.314Z,101808.59
2023-04-10T06:17:35.124Z,101799.28
2023-04-10T06:18:06.696Z,101804.72
2023-04-10T06:18:38.308Z,101801.59
2023-04-10T06:19:09.896Z,101806.66
2023-04-10T06:19:41.547Z,101801.59
2023-04-10T06:20:13.519Z,101797.81
2023-04-10T06:20:45.283Z,101802.47
2023-04-10T06:21:16.852Z,101793.97
2023-04-10T06:21:53.156Z,101800.34
2023-04-10T06:22:26.801Z,101790.50
2023-04-10T06:22:59.358Z,101798.44
2023-04-10T06:23:31.088Z,101794.19
2023-04-10T06:24:02.655Z,101794.22
2023-04-10T06:24:34.270Z,101794.88
2023-04-10T06:25:09.266Z,101791.41
2023-04-10T06:25:41.794Z,101786.91
2023-04-10T06:26:13.595Z,101783.34
2023-04-10T06:26:45.150Z,101784.44
2023-04-10T06:27:17.092Z,101781.06
2023-04-10T06:27:49.621Z,101779.69
2023-04-10T06:28:21.305Z,101775.09
2023-04-10T06:28:56.713Z,101779.13
2023-04-10T06:29:28.949Z,101775.75
2023-04-10T06:30:00.894Z,101771.81
2023-04-10T06:30:34.676Z,101773.63
2023-04-10T06:31:07.557Z,101770.75
2023-04-10T06:31:41.431Z,101765.66
2023-04-10T06:32:13.375Z,101768.53
2023-04-10T06:32:45.350Z,101762.88
2023-04-10T06:33:17.548Z,101764.78
2023-04-10T06:33:50.500Z,101759.09
2023-04-10T06:34:22.257Z,101752.19
2023-04-10T06:35:00.833Z,101761.56
2023-04-10T06:35:32.852Z,101767.94
2023-04-10T06:36:04.808Z,101757.94
2023-04-10T06:36:41.010Z,101756.56
2023-04-10T06:37:12.736Z,101764.66
2023-04-10T06:37:44.582Z,101759.47
2023-04-10T06:38:16.458Z,101764.41
2023-04-10T06:38:48.404Z,101757.06
2023-04-10T06:39:19.995Z,101765.66
2023-04-10T06:39:51.492Z,101764.72
2023-04-10T06:40:23.656Z,101761.59
2023-04-10T06:40:55.243Z,101755.72
2023-04-10T06:41:26.778Z,101758.06
2023-04-10T06:42:01.342Z,101751.88
2023-04-10T06:42:43.756Z,101759.47
2023-04-10T06:43:27.939Z,101749.09
2023-04-10T06:44:01.780Z,101752.41
2023-04-10T06:44:34.793Z,101743.09
2023-04-10T06:45:06.946Z,101746.63
2023-04-10T06:45:38.557Z,101747.34
2023-04-10T06:46:10.304Z,101748.97
2023-04-10T06:46:41.807Z,101744.03
2023-04-10T06:47:13.416Z,101747.25
2023-04-10T06:47:45.008Z,101747.78
2023-04-10T06:48:16.554Z,101743.66
2023-04-10T06:48:48.126Z,101751.47
2023-04-10T06:49:19.637Z,101748.59
2023-04-10T06:49:51.314Z,101743.34
2023-04-10T06:50:22.849Z,101748.06
2023-04-10T06:50:54.437Z,101740.59
2023-04-10T06:51:26.015Z,101744.16
2023-04-10T06:52:06.850Z,101748.69
2023-04-10T06:52:38.481Z,101747.00
2023-04-10T06:53:10.006Z,101736.56
2023-04-10T06:53:41.628Z,101737.75
2023-04-10T06:54:13.184Z,101742.84
2023-04-10T06:54:44.766Z,101735.56
2023-04-10T06:55:17.155Z,101743.56
2023-04-10T06:55:48.728Z,101749.72
2023-04-10T06:56:20.960Z,101741.06
2023-04-10T06:56:52.527Z,101727.13
2023-04-10T06:57:24.073Z,101729.53
2023-04-10T06:57:56.534Z,101735.34
2023-04-10T06:58:28.160Z,101741.94
2023-04-10T06:58:59.690Z,101733.31
2023-04-10T06:59:31.801Z,101731.44
2023-04-10T07:00:03.670Z,101737.22
2023-04-10T07:00:35.197Z,101731.41
2023-04-10T07:01:07.008Z,101726.50
2023-04-10T07:01:38.611Z,101727.09
2023-04-10T07:02:10.382Z,101728.03
2023-04-10T07:02:41.979Z,101724.94
2023-04-10T07:03:13.649Z,101721.88
2023-04-10T07:03:45.422Z,101729.41
2023-04-10T07:04:16.975Z,101727.91
2023-04-10T07:04:48.848Z,101730.44
2023-04-10T07:05:20.472Z,101727.56
2023-04-10T07:05:52.040Z,101716.41
2023-04-10T07:06:23.616Z,101715.16
2023-04-10T07:06:55.212Z,101717.41